Main page
METAR-TAF:

METAR-TAF

Airports :

São José do Rio Preto Airport

São José do Rio Preto, São Paulo, Brazil

latitude: 20-48-58S, longitude: 049-24-17W, elevation: 543 m

Current weather observation

The report was made 50 minutes ago, at 02:00 UTC
Wind 4 kt from the East/Southeast
Temperature 25°C
Humidity 39%
Pressure 1019 hPa
Visibility 10 km or more
no clouds below 1500 m and no cumulonimbus

METAR: SBSR 240200Z 12004KT CAVOK 25/10 Q1019

Time: 23:50 (02:50 UTC)


TAF: missing

Weather observations and forecasts of more than 4000 airports (METAR and TAF reports).

The available stations are represented by yellow and red dots on the map.

Hover mouse over dot to see the name of the station.

Then click to see weather observations and forecasts.

To change the map : click on the green buttons with a black cross to zoom in, on the green button with a dash to zoom out, or on the green arrows for adjacent maps.


METAR-TAF: